Latest Weather Observations for Cabramurra

IDN60901

Issued at 4:25 pm EST Thursday 2 October 2014 (issued every 10 minutes, with the page automatically refreshed every 10 minutes)

About weather observations | Map of Canberra area stations | Latest observations for Canberra area | Other Formats
Station Details ID: 072161 Name: CABRAMURRA SMHEA AWS Lat: -35.94 Lon: 148.38 Height: 1482.4 m
Data from the previous 72 hours. | See also: Recent months at Cabramurra
Date/Time
EST
Tmp

°C
App
Tmp
°C
Dew
Point
°C
Rel
Hum
%
Delta-T

°C
Wind Press
QNH
hPa
Press
MSL
hPa
Rain
since
9 am
mm
Dir
 
Spd
km/h
Gust
km/h
Spd
kts
Gust
kts
02/04:00pm 10.4 5.0 1.5 54 4.1 W 19 28 10 15 - - 0.0
02/03:30pm 10.8 6.3 2.4 56 3.9 WSW 15 24 8 13 - - 0.0
02/03:00pm 10.6 5.6 1.2 52 4.3 W 17 26 9 14 - - 0.0
02/02:30pm 10.7 5.2 0.7 50 4.5 WNW 19 24 10 13 - - 0.0
02/02:00pm 10.5 4.9 1.1 52 4.3 W 20 28 11 15 - - 0.0
02/11:00am 8.7 4.4 0.7 57 3.5 WNW 13 19 7 10 - - 0.0
02/10:30am 7.8 2.6 0.3 59 3.3 WNW 17 22 9 12 - - 0.0
02/10:00am 7.6 2.8 0.3 60 3.2 NW 15 19 8 10 - - 0.0
02/09:30am 6.2 2.4 -0.5 62 2.8 NNW 9 13 5 7 - - 0.0
02/09:00am 6.0 2.2 -0.7 62 2.8 NNW 9 13 5 7 - - 0.0
02/08:30am 5.8 2.2 -1.8 58 3.1 WSW 7 11 4 6 - - 0.0
02/08:00am 5.1 0.3 -2.5 58 3.0 SSW 13 17 7 9 - - 0.0
02/07:30am 4.2 0.1 -3.3 58 2.9 SW 9 15 5 8 - - 0.0
02/07:00am 3.2 0.1 -2.7 65 2.3 S 4 7 2 4 - - 0.0
02/06:30am 2.5 -1.2 -2.8 68 2.0 SSE 7 9 4 5 - - 0.0
02/06:00am 1.5 -2.2 -2.8 73 1.7 SSW 7 11 4 6 - - 0.0
02/05:30am 1.7 -2.3 -2.4 74 1.6 SSW 9 11 5 6 - - 0.0
02/05:00am 1.7 -2.4 -2.8 72 1.7 SSE 9 13 5 7 - - 0.0
02/04:30am 1.7 -3.0 -1.5 79 1.3 S 13 17 7 9 - - 0.0
02/04:00am 1.3 -3.3 -1.3 83 1.0 S 13 17 7 9 - - 0.0
02/03:30am 0.8 -3.9 -1.6 84 1.0 S 13 17 7 9 - - 0.0
02/03:00am 1.2 -3.4 -1.4 83 1.0 S 13 15 7 8 - - 0.0
02/02:30am 1.5 -2.8 -1.7 79 1.2 S 11 13 6 7 - - 0.0
02/02:00am 1.3 -2.2 -1.3 83 1.0 SSW 7 11 4 6 - - 0.0
02/01:30am 1.2 -3.4 -1.0 85 0.9 S 13 13 7 7 - - 0.0
02/01:00am 1.0 -3.2 -1.1 86 0.8 SSW 11 13 6 7 - - 0.0
02/12:30am 0.6 -3.2 -0.7 91 0.5 S 9 13 5 7 - - 0.0
02/12:00am 0.6 -3.2 -0.8 90 0.6 SSW 9 11 5 6 - - 0.0
 
Date/Time
EST
Tmp

°C
App
Tmp
°C
Dew
Point
°C
Rel
Hum
%
Delta-T

°C
Wind Press
QNH
hPa
Press
MSL
hPa
Rain
since
9 am
mm
Dir
 
Spd
km/h
Gust
km/h
Spd
kts
Gust
kts
01/11:30pm 0.7 -2.5 -0.2 94 0.4 SSW 6 7 3 4 - - 0.0
01/11:00pm 0.6 -2.5 -0.1 95 0.3 SSW 6 7 3 4 - - 0.0
01/10:30pm 0.5 -2.7 -0.5 93 0.4 SW 6 7 3 4 - - 0.0
01/10:00pm 0.6 -2.8 -0.5 92 0.4 SSW 7 9 4 5 - - 0.0
01/09:30pm 0.6 -1.5 -0.7 91 0.5 CALM 0 0 0 0 - - 0.0
01/09:00pm 0.8 -1.3 -0.8 89 0.6 CALM 0 0 0 0 - - 0.0
01/08:30pm 1.1 -2.2 -1.0 86 0.8 WNW 6 11 3 6 - - 0.0
01/08:00pm 1.4 -1.8 -0.8 85 0.9 NW 6 11 3 6 - - 0.0
01/07:30pm 1.5 -1.8 -1.1 83 1.0 W 6 11 3 6 - - 0.0
01/07:00pm 1.7 -2.2 -1.5 79 1.3 W 9 17 5 9 - - 0.0
01/06:30pm 2.4 -1.6 -2.3 71 1.8 ESE 9 20 5 11 - - 0.0
01/06:00pm 3.2 -2.0 -2.5 66 2.2 W 15 22 8 12 - - 0.0
01/05:30pm 4.6 -1.4 -2.7 59 2.9 W 19 28 10 15 - - 0.0
01/05:00pm 3.7 -0.4 -2.7 63 2.5 W 9 15 5 8 - - 0.0
01/04:30pm 5.8 0.7 -1.6 59 3.0 W 15 20 8 11 - - 0.0
01/04:00pm 5.6 0.0 -2.5 56 3.2 WNW 17 24 9 13 - - 0.0
01/03:30pm 6.1 0.6 -1.8 57 3.2 SW 17 24 9 13 - - 0.0
01/03:00pm 5.5 -0.4 -2.6 56 3.2 W 19 26 10 14 - - 0.0
01/02:30pm 5.5 0.4 -1.9 59 3.0 W 15 22 8 12 - - 0.0
01/02:00pm 6.0 1.0 -1.2 60 3.0 WSW 15 22 8 12 - - 0.0
01/01:30pm 4.9 -1.6 -2.2 60 2.8 W 22 32 12 17 - - 0.0
01/01:00pm 4.1 -1.9 -3.0 60 2.7 WNW 19 24 10 13 - - 0.0
01/12:30pm 3.7 -1.5 -2.9 62 2.5 WSW 15 26 8 14 - - 0.0
01/12:00pm 4.2 -1.3 -2.0 64 2.5 W 17 26 9 14 - - 0.0
01/11:30am 2.9 -2.3 -2.6 67 2.1 W 15 22 8 12 - - 0.0
01/11:00am 2.0 -3.7 -3.5 67 2.2 WNW 17 24 9 13 - - 0.0
01/10:30am 1.8 -3.2 -4.3 64 2.3 W 13 26 7 14 - - 0.0
01/10:00am 1.3 -3.6 -3.2 72 1.8 W 13 20 7 11 - - 0.0
01/09:30am 1.1 -3.9 -4.1 68 2.0 W 13 26 7 14 - - 0.0
01/09:00am -0.3 -5.3 -4.2 75 1.4 WSW 13 35 7 19 - - 0.0
01/08:30am -0.3 -5.8 -2.3 86 0.7 SW 17 28 9 15 - - 0.0
01/08:00am -0.2 -6.8 -3.6 78 1.2 SW 22 43 12 23 - - 0.0
01/07:30am -1.7 -8.3 -3.3 89 0.5 SW 22 33 12 18 - - 0.0
01/07:00am -2.1 -8.2 -2.2 99 -0.1 WSW 20 41 11 22 - - 0.0
01/06:30am -2.4 -8.3 -2.5 99 -0.1 WSW 19 32 10 17 - - 0.0
01/06:00am -2.1 -8.0 -2.4 98 0.0 WSW 19 30 10 16 - - 0.0
01/05:30am -2.0 -8.1 -2.6 96 0.1 WSW 20 33 11 18 - - 0.0
01/05:12am -1.9 -9.6 -2.9 93 0.3 WSW 28 46 15 25 - - 0.0
01/05:00am -2.0 -9.6 -2.1 99 -0.1 W 28 44 15 24 - - 0.0
01/04:47am -1.9 -9.5 -2.2 98 0.0 W 28 46 15 25 - - 0.0
01/04:30am -1.8 -8.7 -2.4 96 0.1 W 24 37 13 20 - - 0.0
01/04:07am -1.7 -10.1 -2.7 93 0.3 W 32 50 17 27 - - 0.0
01/04:00am -1.7 -10.3 -2.7 93 0.3 W 33 48 18 26 - - 0.0
01/03:33am -1.2 -9.8 -2.9 88 0.6 W 33 52 18 28 - - 0.0
01/03:30am -1.2 -10.2 -3.1 87 0.6 W 35 52 19 28 - - 0.0
01/03:00am -1.0 -9.5 -3.2 85 0.8 W 32 52 17 28 - - 0.0
01/02:30am -0.8 -9.4 -3.8 80 1.0 W 32 46 17 25 - - 0.0
01/02:00am -0.5 -8.3 -4.0 77 1.2 W 28 37 15 20 - - 0.0
01/01:30am -0.4 -8.7 -4.5 74 1.4 W 30 44 16 24 - - 0.0
01/01:00am 0.1 -9.1 -4.3 72 1.6 W 35 48 19 26 - - 0.0
01/12:33am 0.8 -8.7 -4.0 70 1.8 W 37 56 20 30 - - 0.0
01/12:30am 0.9 -8.2 -3.9 70 1.8 W 35 52 19 28 - - 0.0
01/12:01am 1.8 -8.9 -3.9 66 2.2 W 43 61 23 33 - - 0.0
01/12:00am 1.9 -8.3 -3.4 68 2.1 W 41 57 22 31 - - 0.0
 
Date/Time
EST
Tmp

°C
App
Tmp
°C
Dew
Point
°C
Rel
Hum
%
Delta-T

°C
Wind Press
QNH
hPa
Press
MSL
hPa
Rain
since
9 am
mm
Dir
 
Spd
km/h
Gust
km/h
Spd
kts
Gust
kts
30/11:31pm 2.3 -5.7 -2.6 70 1.9 W 30 50 16 27 - - 0.0
30/11:30pm 2.3 -5.7 -2.4 71 1.8 W 30 46 16 25 - - 0.0
30/11:00pm 3.4 -5.0 1.3 86 0.9 W 35 67 19 36 - - 0.0
30/10:30pm 4.4 -6.3 2.6 88 0.8 W 48 83 26 45 - - 0.0
30/10:00pm 5.6 -6.3 4.4 92 0.6 WNW 56 85 30 46 - - 0.0
30/09:30pm 6.8 -3.7 3.8 81 1.4 W 48 91 26 49 - - 0.0
30/09:29pm 7.0 -3.1 3.6 79 1.6 W 46 91 25 49 - - 0.0
30/09:19pm 7.8 -3.1 3.7 75 1.9 W 50 72 27 39 - - 0.0
30/09:00pm 8.3 -1.8 3.9 74 2.1 WNW 46 74 25 40 - - 0.0
30/08:31pm 8.2 -1.3 4.0 75 2.0 W 43 95 23 51 - - 0.0
30/08:30pm 8.5 -1.1 3.6 71 2.3 W 43 72 23 39 - - 0.0
30/08:14pm 9.8 0.0 2.2 59 3.5 W 43 63 23 34 - - 0.0
30/08:00pm 11.0 0.0 0.7 49 4.7 WNW 48 74 26 40 - - 0.0
30/07:30pm 11.1 0.9 0.8 49 4.7 WNW 44 70 24 38 - - 0.0
30/07:00pm 10.6 1.5 1.7 54 4.1 WNW 39 59 21 32 - - 0.0
30/06:30pm 10.9 1.8 1.7 53 4.2 NW 39 59 21 32 - - 0.0
30/06:00pm 11.0 2.3 1.8 53 4.3 WNW 37 56 20 30 - - 0.0
30/05:32pm 11.2 4.1 1.5 51 4.5 WNW 28 52 15 28 - - 0.0
30/05:30pm 11.2 4.5 1.5 51 4.5 WNW 26 37 14 20 - - 0.0
30/05:00pm 12.2 4.2 0.6 45 5.3 WNW 32 52 17 28 - - 0.0
30/04:30pm 12.7 3.3 -0.2 41 5.8 WNW 39 63 21 34 - - 0.0
30/04:00pm 12.4 4.3 -0.1 42 5.6 WNW 32 59 17 32 - - 0.0
30/03:30pm 12.8 5.2 2.6 50 4.9 WNW 32 50 17 27 - - 0.0
30/03:00pm 11.9 3.9 3.7 57 4.0 W 35 56 19 30 - - 0.0
30/02:52pm 11.8 3.6 2.8 54 4.3 W 35 56 19 30 - - 0.0
30/02:48pm 12.0 2.3 3.0 54 4.3 W 43 54 23 29 - - 0.0
30/02:30pm 12.8 4.6 2.9 51 4.8 WNW 35 57 19 31 - - 0.0
30/02:00pm 12.2 4.7 3.4 55 4.3 WNW 32 54 17 29 - - 0.0
30/01:30pm 11.7 2.0 2.7 54 4.3 W 43 63 23 34 - - 0.0
30/01:00pm 12.5 3.4 2.1 49 4.9 WNW 39 67 21 36 - - 0.0
30/12:30pm 12.9 2.3 3.0 51 4.8 WNW 48 74 26 40 - - 0.0
30/12:22pm 12.4 0.6 2.6 51 4.7 W 54 74 29 40 - - 0.0
30/12:21pm 12.4 -0.4 2.3 50 4.8 W 59 74 32 40 - - 0.0
30/12:00pm 12.4 3.3 2.0 49 4.9 W 39 63 21 34 - - 0.0
30/11:54am 12.6 3.6 2.7 51 4.7 W 39 63 21 34 - - 0.0
30/11:52am 12.8 5.2 2.6 50 4.9 WNW 32 44 17 24 - - 0.0
30/11:45am 12.3 0.0 1.9 49 4.9 W 56 76 30 41 - - 0.0
30/11:30am 12.0 3.3 2.2 51 4.6 W 37 57 20 31 - - 0.0
30/11:00am 12.5 2.7 2.4 50 4.8 W 43 67 23 36 - - 0.0
30/10:30am 12.1 2.2 1.7 49 4.9 W 43 63 23 34 - - 0.0
30/10:02am 11.9 4.0 2.1 51 4.6 W 33 56 18 30 - - 0.0
30/10:00am 12.0 4.3 2.5 52 4.5 W 32 48 17 26 - - 0.0
30/09:32am 11.4 4.5 2.4 54 4.2 W 28 48 15 26 - - 0.0
30/09:30am 11.4 4.9 2.4 54 4.2 WNW 26 48 14 26 - - 0.0
30/09:00am 10.7 2.8 2.3 56 3.9 WNW 33 52 18 28 - - 0.0
30/08:53am 10.5 3.5 2.1 56 3.9 WNW 28 46 15 25 - - 0.0
30/08:30am 10.3 3.4 2.4 58 3.7 WNW 28 39 15 21 - - 0.0
30/08:00am 9.9 2.9 1.8 57 3.7 WNW 28 35 15 19 - - 0.0
30/07:30am 9.4 3.1 1.3 57 3.7 WNW 24 35 13 19 - - 0.0
30/07:00am 9.0 2.6 1.0 57 3.6 WNW 24 32 13 17 - - 0.0
30/06:30am 8.7 3.0 0.7 57 3.5 WNW 20 30 11 16 - - 0.0
30/06:00am 8.3 2.8 0.8 59 3.3 WNW 19 28 10 15 - - 0.0
30/05:30am 8.2 3.1 0.7 59 3.3 NW 17 20 9 11 - - 0.0
30/05:00am 8.1 3.4 1.0 61 3.2 WNW 15 20 8 11 - - 0.0
30/04:30am 8.2 3.2 1.1 61 3.2 NW 17 20 9 11 - - 0.0
30/04:00am 8.3 3.6 1.2 61 3.2 WNW 15 20 8 11 - - 0.0
30/03:30am 8.5 3.1 1.4 61 3.2 WNW 19 24 10 13 - - 0.0
30/03:00am 8.7 3.7 1.4 60 3.3 WNW 17 24 9 13 - - 0.0
30/02:30am 8.9 3.3 1.1 58 3.5 WNW 20 26 11 14 - - 0.0
30/02:00am 9.3 3.6 0.7 55 3.8 WNW 20 28 11 15 - - 0.0
30/01:30am 9.4 3.9 0.6 54 3.9 WNW 19 28 10 15 - - 0.0
30/01:00am 9.9 3.8 0.3 51 4.3 WNW 22 32 12 17 - - 0.0
30/12:30am 9.9 4.2 0.3 51 4.3 WNW 20 32 11 17 - - 0.0
30/12:00am 9.9 3.8 0.5 52 4.2 WNW 22 30 12 16 - - 0.0
 
Date/Time
EST
Tmp

°C
App
Tmp
°C
Dew
Point
°C
Rel
Hum
%
Delta-T

°C
Wind Press
QNH
hPa
Press
MSL
hPa
Rain
since
9 am
mm
Dir
 
Spd
km/h
Gust
km/h
Spd
kts
Gust
kts
29/11:30pm 9.9 4.2 0.5 52 4.2 WNW 20 28 11 15 - - 0.0
29/11:00pm 9.7 4.5 0.3 52 4.2 NW 17 20 9 11 - - 0.0
29/10:30pm 10.2 4.6 0.0 49 4.5 NW 19 26 10 14 - - 0.0
29/10:00pm 9.8 4.2 -2.8 41 5.2 NNW 17 22 9 12 - - 0.0
29/09:30pm 9.2 3.9 -0.9 49 4.3 N 17 22 9 12 - - 0.0
29/09:00pm 8.8 3.4 -1.3 49 4.3 N 17 20 9 11 - - 0.0
29/08:30pm 8.6 4.2 0.3 56 3.6 N 13 17 7 9 - - 0.0
29/08:00pm 9.0 5.2 1.7 60 3.3 N 11 15 6 8 - - 0.0
29/07:30pm 9.1 5.9 3.1 66 2.8 NW 9 13 5 7 - - 0.0
29/07:00pm 9.3 6.4 2.6 63 3.1 WNW 7 11 4 6 - - 0.0
29/06:30pm 10.0 6.4 3.1 62 3.3 WNW 11 17 6 9 - - 0.0
29/06:00pm 11.3 6.6 3.3 58 3.8 W 17 26 9 14 - - 0.0
29/05:30pm 12.4 7.2 2.6 51 4.7 WNW 19 30 10 16 - - 0.0
29/05:00pm 13.2 7.6 1.5 45 5.5 W 20 30 11 16 - - 0.0
29/04:30pm 13.7 7.5 2.0 45 5.6 W 24 37 13 20 - - 0.0

Latest Capital City Observations: Canberra | Sydney | Melbourne | Brisbane | Adelaide | Perth | Hobart | Darwin

Other Formats:

Comma delimited format used in spreadsheet applications
http://www.bom.gov.au/fwo/IDN60903/IDN60903.95916.axf

JavaScript Object Notation format (JSON) in row-major order
http://www.bom.gov.au/fwo/IDN60903/IDN60903.95916.json